Time;durP1;ratioP1;P1;durP2;ratioP2;P2;SDS_P1;SDS_P2;PMS_P1;PMS_P2;Temp;Humidity;BMP_temperature;BMP_pressure;BME280_temperature;BME280_humidity;BME280_pressure;Samples;Min_cycle;Max_cycle;Signal;HPM_P1;HPM_P2
2022/07/17 00:02:16;;;;;;;7.45;4.75;;;;;;;19.71;48.88;93524.41;2071792;69;20159;-68
2022/07/17 00:04:41;;;;;;;8.27;5.28;;;;;;;19.81;48.96;93526.91;2068287;69;20160;-68
2022/07/17 00:07:07;;;;;;;9.82;5.05;;;;;;;19.80;48.66;93519.75;2071049;69;20540;-69
2022/07/17 00:09:33;;;;;;;6.20;4.82;;;;;;;19.73;49.61;93523.72;2071555;69;20148;-68
2022/07/17 00:11:58;;;;;;;9.52;4.72;;;;;;;19.72;49.43;93525.13;2071635;69;20164;-69
2022/07/17 00:14:24;;;;;;;8.68;5.20;;;;;;;19.71;49.12;93515.81;2071343;69;20267;-69
2022/07/17 00:16:49;;;;;;;6.85;5.38;;;;;;;19.64;49.19;93513.38;2071332;69;20235;-70
2022/07/17 00:19:15;;;;;;;6.70;4.68;;;;;;;19.65;49.62;93517.69;2071572;69;20136;-69
2022/07/17 00:21:42;;;;;;;7.32;4.65;;;;;;;19.57;49.81;93508.78;2071684;69;20295;-69
2022/07/17 00:24:10;;;;;;;7.05;4.82;;;;;;;19.67;49.27;93514.94;2071449;69;20151;-69
2022/07/17 00:26:36;;;;;;;8.85;4.82;;;;;;;19.51;49.58;93517.81;2068104;69;20605;-69
2022/07/17 00:29:03;;;;;;;8.93;4.75;;;;;;;19.65;48.99;93511.97;2071522;69;20155;-68
2022/07/17 00:31:28;;;;;;;7.50;4.78;;;;;;;19.47;49.70;93514.78;2071388;69;20144;-68
2022/07/17 00:33:54;;;;;;;8.10;4.70;;;;;;;19.45;50.07;93514.72;2071434;69;20206;-69
2022/07/17 00:36:20;;;;;;;7.93;4.70;;;;;;;19.37;49.69;93515.13;2071460;69;20144;-69
2022/07/17 00:38:45;;;;;;;6.03;4.57;;;;;;;19.50;49.30;93519.22;2071492;69;20171;-69
2022/07/17 00:41:14;;;;;;;8.32;4.68;;;;;;;19.42;50.11;93510.31;2071397;69;20159;-69
2022/07/17 00:43:39;;;;;;;9.18;4.90;;;;;;;19.32;50.11;93515.63;2071369;69;20164;-69
2022/07/17 00:46:05;;;;;;;7.05;4.72;;;;;;;19.44;48.92;93522.56;2071025;69;20595;-71
2022/07/17 00:48:32;;;;;;;8.45;5.13;;;;;;;19.18;50.43;93515.75;2071310;69;20148;-70
2022/07/17 00:50:58;;;;;;;9.38;5.13;;;;;;;19.25;50.30;93518.22;2071663;69;20132;-69
2022/07/17 00:53:23;;;;;;;7.57;5.00;;;;;;;19.16;50.22;93518.53;2071207;69;20534;-70
2022/07/17 00:55:49;;;;;;;5.57;4.95;;;;;;;19.19;49.91;93511.50;2071412;69;20231;-70
2022/07/17 00:58:21;;;;;;;8.77;5.28;;;;;;;19.11;50.63;93514.78;2068117;69;20140;-69
2022/07/17 01:00:48;;;;;;;7.28;4.90;;;;;;;19.14;50.57;93515.59;2071332;69;20184;-72
2022/07/17 01:03:14;;;;;;;7.57;5.25;;;;;;;19.14;49.47;93522.03;2071229;69;20174;-70
2022/07/17 01:05:40;;;;;;;6.32;4.40;;;;;;;19.18;49.10;93522.19;2071312;69;20222;-68
2022/07/17 01:08:06;;;;;;;6.80;4.28;;;;;;;19.32;48.74;93513.50;2071130;69;20532;-72
2022/07/17 01:10:32;;;;;;;5.68;4.75;;;;;;;19.27;47.94;93517.56;2071348;69;20172;-70
2022/07/17 01:12:58;;;;;;;6.18;4.95;;;;;;;18.99;49.49;93519.97;2071505;69;20152;-68
2022/07/17 01:15:23;;;;;;;8.02;5.80;;;;;;;18.80;50.25;93518.44;2071516;69;20188;-69
2022/07/17 01:17:49;;;;;;;7.82;5.28;;;;;;;18.97;49.82;93528.44;2071533;69;20239;-69
2022/07/17 01:20:15;;;;;;;6.78;4.85;;;;;;;18.98;49.78;93527.06;2068106;69;20160;-69
2022/07/17 01:22:46;;;;;;;6.40;4.85;;;;;;;18.96;50.18;93527.69;2071376;69;20132;-69
2022/07/17 01:25:13;;;;;;;5.82;4.47;;;;;;;18.80;50.49;93527.00;2071356;69;20153;-68
2022/07/17 01:27:40;;;;;;;10.32;4.75;;;;;;;18.91;50.04;93526.03;2071506;69;20166;-70
2022/07/17 01:30:07;;;;;;;7.50;4.82;;;;;;;18.79;49.87;93523.41;2071478;69;20152;-69
2022/07/17 01:32:34;;;;;;;6.63;4.90;;;;;;;18.77;50.01;93525.44;2071451;69;20161;-68
2022/07/17 01:35:01;;;;;;;7.18;5.03;;;;;;;18.76;50.17;93527.56;2071540;69;20145;-68
2022/07/17 01:37:27;;;;;;;7.00;5.32;;;;;;;18.84;49.98;93524.34;2071331;69;20254;-68
2022/07/17 01:39:53;;;;;;;5.95;4.80;;;;;;;18.91;49.25;93526.03;2071683;69;20180;-68
2022/07/17 01:42:20;;;;;;;8.50;4.65;;;;;;;18.81;49.71;93528.47;2067722;69;20528;-68
2022/07/17 01:44:46;;;;;;;8.45;4.85;;;;;;;18.96;48.82;93527.69;2071312;69;20172;-70
2022/07/17 01:47:14;;;;;;;7.03;4.80;;;;;;;18.75;49.70;93526.09;2071355;69;20156;-67
2022/07/17 01:49:50;;;;;;;5.78;4.10;;;;;;;18.59;49.93;93525.34;2070987;69;20159;-68
2022/07/17 01:52:16;;;;;;;7.93;4.78;;;;;;;18.67;49.92;93519.28;2071125;69;20193;-68
2022/07/17 01:54:42;;;;;;;7.75;4.88;;;;;;;18.73;49.43;93526.00;2067990;69;20136;-68
2022/07/17 01:57:09;;;;;;;6.63;4.70;;;;;;;18.62;49.92;93531.88;2070941;69;20639;-68
2022/07/17 01:59:37;;;;;;;6.35;4.60;;;;;;;18.62;50.24;93532.63;2071876;69;20186;-67
2022/07/17 02:02:04;;;;;;;7.05;4.40;;;;;;;18.50;50.96;93527.09;2071654;69;20152;-68
2022/07/17 02:04:31;;;;;;;9.73;5.60;;;;;;;18.60;50.16;93526.84;2071616;69;20235;-71
2022/07/17 02:06:57;;;;;;;7.00;5.32;;;;;;;18.45;50.64;93527.56;2071648;69;20167;-68
2022/07/17 02:09:23;;;;;;;9.48;5.25;;;;;;;18.42;50.99;93520.31;2071296;69;20159;-69
2022/07/17 02:11:49;;;;;;;10.00;5.07;;;;;;;18.39;50.76;93528.03;2071644;69;20148;-69
2022/07/17 02:14:15;;;;;;;9.13;5.80;;;;;;;18.24;51.41;93523.81;2071566;69;20148;-68
2022/07/17 02:16:41;;;;;;;9.10;5.55;;;;;;;18.14;51.89;93531.88;2071643;69;20148;-68
2022/07/17 02:19:06;;;;;;;8.32;5.60;;;;;;;18.07;51.71;93526.56;2071803;69;20156;-68
2022/07/17 02:21:32;;;;;;;8.50;5.65;;;;;;;18.16;51.73;93519.84;2071275;69;20193;-69
2022/07/17 02:23:58;;;;;;;8.88;5.82;;;;;;;18.32;50.54;93519.84;2071318;69;20172;-67
2022/07/17 02:26:24;;;;;;;7.53;5.18;;;;;;;18.32;50.29;93517.00;2071452;69;20176;-67
2022/07/17 02:28:50;;;;;;;6.45;5.03;;;;;;;18.10;52.31;93522.41;2071543;69;20178;-68
2022/07/17 02:31:15;;;;;;;10.43;5.40;;;;;;;18.11;52.17;93518.19;2071373;69;20167;-69
2022/07/17 02:33:41;;;;;;;7.88;5.70;;;;;;;17.93;52.03;93507.44;2071350;69;20155;-68
2022/07/17 02:36:07;;;;;;;10.75;6.13;;;;;;;18.01;52.18;93515.63;2071546;69;20526;-69
2022/07/17 02:38:33;;;;;;;6.72;5.55;;;;;;;17.95;52.72;93516.06;2071271;69;20508;-71
2022/07/17 02:40:59;;;;;;;9.40;5.57;;;;;;;18.02;52.52;93519.94;2071474;69;20152;-69
2022/07/17 02:43:25;;;;;;;6.22;5.40;;;;;;;17.87;52.01;93515.69;2071440;69;20160;-68
2022/07/17 02:45:51;;;;;;;6.32;5.63;;;;;;;18.01;52.30;93513.50;2071414;69;20576;-71
2022/07/17 02:48:16;;;;;;;9.07;5.05;;;;;;;17.78;52.82;93513.84;2071605;69;20625;-69
2022/07/17 02:50:42;;;;;;;7.53;5.35;;;;;;;18.00;51.42;93505.59;2071752;69;20168;-69
2022/07/17 02:53:07;;;;;;;7.80;5.68;;;;;;;18.05;51.34;93510.09;2071722;69;20236;-69
2022/07/17 02:55:33;;;;;;;9.25;5.35;;;;;;;17.97;52.40;93506.88;2071941;69;20254;-70
2022/07/17 02:57:59;;;;;;;10.93;5.57;;;;;;;17.88;52.87;93502.19;2071927;69;20174;-69
2022/07/17 03:00:26;;;;;;;9.27;5.95;;;;;;;17.80;53.39;93501.81;2068403;69;20278;-69
2022/07/17 03:02:52;;;;;;;6.65;5.28;;;;;;;17.73;53.36;93504.38;2071926;69;20148;-71
2022/07/17 03:05:18;;;;;;;6.90;5.78;;;;;;;17.82;52.68;93504.75;2071935;69;20192;-70
2022/07/17 03:07:45;;;;;;;6.65;5.50;;;;;;;17.66;53.20;93507.53;2071858;69;20148;-73
2022/07/17 03:10:11;;;;;;;11.27;5.38;;;;;;;17.69;52.55;93514.81;2071637;69;20183;-73
2022/07/17 03:12:37;;;;;;;9.02;5.75;;;;;;;17.61;53.13;93509.47;2071913;69;20147;-71
2022/07/17 03:15:04;;;;;;;8.73;5.90;;;;;;;17.52;53.62;93514.03;2071989;69;20160;-69
2022/07/17 03:17:30;;;;;;;9.32;5.10;;;;;;;17.66;53.30;93510.38;2071939;69;20201;-70
2022/07/17 03:19:56;;;;;;;8.75;5.50;;;;;;;17.34;55.46;93510.31;2071781;69;20287;-69
2022/07/17 03:22:22;;;;;;;11.75;5.82;;;;;;;17.50;53.86;93513.94;2071703;69;20227;-71
2022/07/17 03:24:47;;;;;;;10.48;5.82;;;;;;;17.51;54.01;93526.78;2071864;69;20268;-69
2022/07/17 03:27:13;;;;;;;10.80;6.00;;;;;;;17.50;53.72;93527.41;2071851;69;20175;-69
2022/07/17 03:29:39;;;;;;;8.13;5.82;;;;;;;17.50;54.17;93528.19;2068441;69;20147;-70
2022/07/17 03:32:05;;;;;;;8.10;6.03;;;;;;;17.47;53.90;93520.16;2068510;69;20148;-68
2022/07/17 03:34:30;;;;;;;9.55;5.60;;;;;;;17.39;54.43;93520.50;2071892;69;20136;-69
2022/07/17 03:36:56;;;;;;;8.18;5.85;;;;;;;17.39;54.65;93528.31;2071762;69;20241;-73
2022/07/17 03:39:22;;;;;;;9.32;6.05;;;;;;;17.36;54.50;93521.78;2068596;69;20236;-72
2022/07/17 03:41:47;;;;;;;6.75;5.70;;;;;;;17.37;54.61;93525.38;2071515;69;20201;-69
2022/07/17 03:44:13;;;;;;;10.43;6.25;;;;;;;17.22;55.11;93530.34;2071743;69;20571;-69
2022/07/17 03:46:39;;;;;;;8.98;6.40;;;;;;;17.29;54.56;93531.41;2071825;69;20575;-71
2022/07/17 03:49:05;;;;;;;9.05;6.10;;;;;;;17.11;55.16;93533.34;2068440;69;20187;-69
2022/07/17 03:51:31;;;;;;;8.57;5.82;;;;;;;17.16;55.20;93530.06;2071613;69;20163;-69
2022/07/17 03:53:57;;;;;;;8.43;5.57;;;;;;;17.22;55.26;93521.81;2071706;69;20171;-69
2022/07/17 03:56:22;;;;;;;8.30;5.80;;;;;;;17.22;54.30;93529.63;2071594;69;20218;-70
2022/07/17 03:58:49;;;;;;;9.02;5.90;;;;;;;17.09;55.58;93533.22;2071931;69;20538;-69
2022/07/17 04:01:14;;;;;;;9.18;5.90;;;;;;;17.12;55.01;93535.53;2071782;69;20156;-71
2022/07/17 04:03:40;;;;;;;9.35;6.20;;;;;;;17.05;55.04;93533.78;2071674;69;20159;-69
2022/07/17 04:06:06;;;;;;;8.25;6.00;;;;;;;17.00;55.39;93540.63;2071712;69;20144;-69
2022/07/17 04:08:32;;;;;;;10.57;6.47;;;;;;;17.13;54.45;93536.28;2071606;69;20128;-70
2022/07/17 04:10:58;;;;;;;9.32;5.88;;;;;;;17.06;55.15;93535.25;2071894;69;20667;-69
2022/07/17 04:13:23;;;;;;;9.15;6.10;;;;;;;16.98;56.04;93535.56;2071776;69;20132;-69
2022/07/17 04:15:49;;;;;;;8.50;6.35;;;;;;;16.94;56.17;93540.31;2071724;69;20226;-69
2022/07/17 04:18:22;;;;;;;8.88;6.15;;;;;;;17.03;55.77;93539.34;2068398;69;20176;-69
2022/07/17 04:20:49;;;;;;;9.90;6.40;;;;;;;16.95;56.46;93544.63;2068352;69;20183;-69
2022/07/17 04:23:15;;;;;;;9.07;6.22;;;;;;;16.85;56.68;93550.53;2071613;69;20168;-69
2022/07/17 04:25:41;;;;;;;11.07;6.55;;;;;;;16.77;56.53;93548.03;2068152;69;20538;-70
2022/07/17 04:28:07;;;;;;;9.18;5.97;;;;;;;16.89;56.66;93547.16;2071471;69;20175;-70
2022/07/17 04:30:33;;;;;;;11.02;6.97;;;;;;;16.58;57.80;93559.06;2071694;69;20231;-69
2022/07/17 04:32:59;;;;;;;12.95;6.93;;;;;;;16.91;56.48;93550.13;2071754;69;20493;-71
2022/07/17 04:35:24;;;;;;;12.40;6.75;;;;;;;16.84;56.10;93559.72;2071710;69;20155;-70
2022/07/17 04:37:50;;;;;;;8.90;6.25;;;;;;;16.86;56.43;93559.81;2068366;69;20664;-70
2022/07/17 04:40:16;;;;;;;11.80;7.22;;;;;;;16.63;57.68;93563.56;2071803;69;20152;-69
2022/07/17 04:42:41;;;;;;;11.02;7.03;;;;;;;16.70;57.18;93554.75;2068364;69;20143;-69
2022/07/17 04:45:08;;;;;;;9.70;6.93;;;;;;;16.76;57.33;93565.72;2071584;69;20179;-69
2022/07/17 04:47:34;;;;;;;9.30;6.35;;;;;;;16.67;57.97;93558.09;2071664;69;20193;-71
2022/07/17 04:50:00;;;;;;;12.45;6.93;;;;;;;16.75;57.31;93564.97;2071801;69;20612;-70
2022/07/17 04:52:26;;;;;;;11.10;6.82;;;;;;;16.53;58.37;93558.84;2071488;69;20140;-69
2022/07/17 04:54:51;;;;;;;11.82;7.22;;;;;;;16.64;57.83;93571.50;2071395;69;20148;-68
2022/07/17 04:57:17;;;;;;;13.88;7.32;;;;;;;16.59;57.86;93566.97;2071680;69;20625;-69
2022/07/17 04:59:43;;;;;;;11.68;7.40;;;;;;;16.78;56.08;93563.00;2071801;69;20519;-69
2022/07/17 05:02:08;;;;;;;12.25;7.40;;;;;;;16.55;57.73;93566.00;2071621;69;20148;-70
2022/07/17 05:04:34;;;;;;;10.52;7.05;;;;;;;16.58;58.48;93573.25;2071517;69;20163;-70
2022/07/17 05:07:00;;;;;;;8.73;6.50;;;;;;;16.59;58.26;93566.97;2071517;69;20152;-70
2022/07/17 05:09:25;;;;;;;8.77;6.68;;;;;;;16.66;58.43;93560.22;2071481;69;20558;-70
2022/07/17 05:11:51;;;;;;;10.50;7.00;;;;;;;16.65;58.22;93567.28;2071612;69;20235;-71
2022/07/17 05:14:17;;;;;;;11.27;6.93;;;;;;;16.74;57.87;93574.16;2067992;69;20225;-69
2022/07/17 05:16:42;;;;;;;9.48;6.68;;;;;;;16.76;57.59;93577.81;2071564;69;20672;-69
2022/07/17 05:19:08;;;;;;;14.05;6.95;;;;;;;16.78;57.92;93571.53;2071368;69;20148;-69
2022/07/17 05:21:34;;;;;;;9.70;6.82;;;;;;;16.64;58.04;93577.19;2071166;69;20491;-69
2022/07/17 05:23:59;;;;;;;11.57;6.97;;;;;;;16.75;58.36;93573.50;2071352;69;20160;-68
2022/07/17 05:26:26;;;;;;;11.68;7.20;;;;;;;16.55;58.49;93580.97;2071474;69;20606;-68
2022/07/17 05:28:52;;;;;;;11.25;7.07;;;;;;;16.73;57.15;93587.63;2071300;69;20152;-72
2022/07/17 05:31:18;;;;;;;11.52;7.50;;;;;;;16.65;58.23;93578.66;2071721;69;20137;-69
2022/07/17 05:33:44;;;;;;;14.85;7.68;;;;;;;16.59;58.43;93583.28;2072251;69;20260;-70
2022/07/17 05:36:10;;;;;;;12.23;7.53;;;;;;;16.55;58.84;93580.22;2072602;69;20144;-70
2022/07/17 05:38:37;;;;;;;12.15;7.53;;;;;;;16.59;59.03;93577.59;2072371;69;20148;-70
2022/07/17 05:41:03;;;;;;;14.30;7.88;;;;;;;16.49;59.04;93578.53;2072449;69;20675;-72
2022/07/17 05:43:28;;;;;;;13.23;7.50;;;;;;;16.80;57.21;93577.28;2072425;69;20627;-70
2022/07/17 05:45:57;;;;;;;12.40;7.70;;;;;;;16.62;59.36;93573.47;2072514;69;20225;-69
2022/07/17 05:48:24;;;;;;;10.27;6.78;;;;;;;16.66;59.10;93582.22;2072407;69;20163;-69
2022/07/17 05:50:50;;;;;;;15.10;7.60;;;;;;;16.71;58.17;93581.06;2072507;69;20144;-69
2022/07/17 05:53:16;;;;;;;13.52;7.63;;;;;;;16.65;59.44;93581.47;2072300;69;20148;-69
2022/07/17 05:55:42;;;;;;;10.57;7.20;;;;;;;16.65;58.47;93580.75;2072416;69;20514;-70
2022/07/17 05:58:08;;;;;;;10.40;7.78;;;;;;;16.64;58.99;93584.97;2072420;69;20132;-70
2022/07/17 06:00:34;;;;;;;12.80;7.93;;;;;;;16.62;58.33;93582.75;2072513;69;20143;-70
2022/07/17 06:03:01;;;;;;;15.93;8.05;;;;;;;16.51;58.27;93580.75;2072504;69;20608;-69
2022/07/17 06:05:26;;;;;;;9.55;7.72;;;;;;;16.71;58.12;93581.06;2066267;69;20300;-70
2022/07/17 06:07:53;;;;;;;12.40;7.45;;;;;;;16.72;58.53;93574.78;2069046;69;20538;-70
2022/07/17 06:10:19;;;;;;;13.07;7.43;;;;;;;16.87;58.36;93570.56;2072356;69;20176;-70
2022/07/17 06:12:45;;;;;;;12.73;7.50;;;;;;;16.82;58.93;93573.84;2072504;69;20176;-71
2022/07/17 06:15:11;;;;;;;13.77;7.50;;;;;;;16.85;58.81;93570.44;2072462;69;20591;-70
2022/07/17 06:17:36;;;;;;;12.32;7.45;;;;;;;16.90;58.96;93565.69;2072310;69;20168;-73
2022/07/17 06:20:03;;;;;;;10.05;7.47;;;;;;;16.88;58.79;93574.16;2072393;69;20155;-70
2022/07/17 06:22:29;;;;;;;9.75;7.55;;;;;;;16.89;59.55;93570.66;2072325;69;20534;-71
2022/07/17 06:24:55;;;;;;;9.95;7.38;;;;;;;17.03;57.32;93565.69;2072265;69;20687;-70
2022/07/17 06:27:21;;;;;;;12.43;7.38;;;;;;;17.09;58.57;93562.44;2072318;69;20148;-70
2022/07/17 06:29:47;;;;;;;11.02;7.50;;;;;;;17.15;58.76;93559.88;2072480;69;20167;-70
2022/07/17 06:32:13;;;;;;;8.80;6.97;;;;;;;17.24;58.58;93558.19;2072313;69;20614;-70
2022/07/17 06:34:38;;;;;;;10.75;7.47;;;;;;;17.38;58.87;93555.31;2072381;69;20144;-70
2022/07/17 06:37:04;;;;;;;9.50;7.15;;;;;;;17.46;58.64;93553.59;2072155;69;20156;-72
2022/07/17 06:39:30;;;;;;;11.68;7.63;;;;;;;17.63;57.77;93555.09;2072469;69;20168;-70
2022/07/17 06:41:55;;;;;;;11.00;7.50;;;;;;;17.71;57.66;93552.66;2072305;69;20147;-73
2022/07/17 06:44:21;;;;;;;11.32;7.60;;;;;;;17.77;57.68;93550.09;2071856;69;20147;-74
2022/07/17 06:46:47;;;;;;;9.00;7.55;;;;;;;17.89;57.64;93552.81;2071799;69;20608;-72
2022/07/17 06:49:12;;;;;;;11.70;7.32;;;;;;;18.01;58.00;93556.25;2071773;69;20145;-70
2022/07/17 06:51:39;;;;;;;10.00;6.93;;;;;;;18.19;55.77;93544.19;2071883;69;20163;-69
2022/07/17 06:54:05;;;;;;;11.05;7.57;;;;;;;18.31;56.72;93546.88;2071707;69;20497;-69
2022/07/17 06:56:31;;;;;;;10.52;6.65;;;;;;;18.41;55.05;93544.47;2068421;69;20144;-72
2022/07/17 06:58:57;;;;;;;10.55;6.90;;;;;;;18.49;54.88;93544.84;2071677;69;20163;-70
2022/07/17 07:01:23;;;;;;;10.70;7.10;;;;;;;18.62;55.35;93544.03;2071711;69;20217;-70
2022/07/17 07:03:49;;;;;;;8.30;6.38;;;;;;;18.67;51.85;93545.66;2068476;69;20156;-73
2022/07/17 07:06:15;;;;;;;9.18;6.47;;;;;;;18.84;53.21;93540.72;2071612;69;20160;-70
2022/07/17 07:08:41;;;;;;;11.95;6.43;;;;;;;18.92;51.56;93543.91;2071809;69;20176;-70
2022/07/17 07:11:07;;;;;;;9.98;6.32;;;;;;;19.04;51.50;93536.59;2068499;69;20191;-71
2022/07/17 07:13:32;;;;;;;7.85;6.40;;;;;;;19.14;53.30;93532.72;2068656;69;20180;-69
2022/07/17 07:15:59;;;;;;;9.25;6.88;;;;;;;19.24;52.27;93530.28;2071835;69;20235;-69
2022/07/17 07:18:25;;;;;;;9.15;6.82;;;;;;;19.28;52.63;93530.44;2071927;69;20183;-70
2022/07/17 07:20:50;;;;;;;8.20;6.70;;;;;;;19.38;50.87;93530.13;2071911;69;20140;-68
2022/07/17 07:23:16;;;;;;;9.07;6.45;;;;;;;19.41;51.41;93525.97;2071839;69;20209;-69
2022/07/17 07:25:44;;;;;;;9.00;7.03;;;;;;;19.53;51.83;93523.63;2071894;69;20487;-71
2022/07/17 07:28:10;;;;;;;8.93;7.15;;;;;;;19.49;51.86;93526.31;2071701;69;20152;-72
2022/07/17 07:30:35;;;;;;;11.00;7.00;;;;;;;19.62;50.11;93522.59;2071774;69;20610;-70
2022/07/17 07:33:02;;;;;;;8.32;6.85;;;;;;;19.73;50.41;93520.88;2071449;69;20143;-72
2022/07/17 07:35:28;;;;;;;6.70;6.00;;;;;;;19.86;50.28;93519.25;2068529;69;20241;-71
2022/07/17 07:37:55;;;;;;;9.77;6.75;;;;;;;19.89;49.87;93518.66;2069457;69;20148;-72
2022/07/17 07:40:22;;;;;;;7.57;6.30;;;;;;;20.00;50.54;93519.78;2072029;69;20520;-72
2022/07/17 07:42:48;;;;;;;9.45;6.35;;;;;;;20.14;51.04;93514.63;2071863;69;20148;-70
2022/07/17 07:45:13;;;;;;;9.18;6.50;;;;;;;20.18;49.19;93520.50;2071712;69;20620;-71
2022/07/17 07:47:45;;;;;;;9.65;6.75;;;;;;;20.36;48.80;93516.88;2068192;69;20140;-73
2022/07/17 07:50:11;;;;;;;7.93;6.40;;;;;;;20.11;49.17;93512.31;2071678;69;20154;-71
2022/07/17 07:52:38;;;;;;;10.50;6.18;;;;;;;20.32;47.03;93517.44;2071583;69;20529;-74
2022/07/17 07:55:04;;;;;;;7.00;5.78;;;;;;;20.31;48.02;93516.69;2071655;69;20279;-74
2022/07/17 07:57:30;;;;;;;10.77;5.93;;;;;;;20.76;47.52;93520.50;2071894;69;20234;-71
2022/07/17 07:59:56;;;;;;;8.30;6.43;;;;;;;20.93;47.63;93511.09;2071909;69;20156;-71
2022/07/17 08:02:21;;;;;;;7.10;5.63;;;;;;;20.96;45.84;93512.63;2071323;69;20147;-70
2022/07/17 08:04:47;;;;;;;8.15;5.50;;;;;;;21.14;46.98;93508.94;2071182;69;20314;-72
2022/07/17 08:07:13;;;;;;;9.50;5.40;;;;;;;21.55;46.89;93508.94;2070247;69;20604;-72
2022/07/17 08:09:39;;;;;;;7.32;5.40;;;;;;;21.85;44.81;93499.09;2070630;69;20203;-72
2022/07/17 08:12:05;;;;;;;9.93;5.03;;;;;;;22.12;44.21;93509.28;2070057;69;20160;-73
2022/07/17 08:14:30;;;;;;;5.63;5.05;;;;;;;22.61;43.23;93505.72;2070911;69;20247;-73
2022/07/17 08:16:56;;;;;;;7.25;5.30;;;;;;;22.84;41.08;93504.94;2070473;69;20496;-73
2022/07/17 08:19:22;;;;;;;12.68;5.63;;;;;;;23.04;41.79;93499.03;2070580;69;20293;-71
2022/07/17 08:21:47;;;;;;;8.60;5.00;;;;;;;23.57;41.49;93506.16;2070104;69;20569;-71
2022/07/17 08:24:13;;;;;;;7.25;5.20;;;;;;;23.48;40.47;93498.03;2070906;69;20140;-74
2022/07/17 08:26:39;;;;;;;6.55;4.80;;;;;;;23.99;41.03;93500.00;2070445;69;20162;-71
2022/07/17 08:29:04;;;;;;;6.95;4.70;;;;;;;24.44;41.79;93497.44;2070228;69;20598;-73
2022/07/17 08:31:30;;;;;;;6.22;4.35;;;;;;;24.57;40.00;93496.28;2070111;69;20184;-70
2022/07/17 08:33:55;;;;;;;5.75;4.40;;;;;;;24.68;38.98;93505.88;2069871;69;20675;-70
2022/07/17 08:36:21;;;;;;;11.82;5.22;;;;;;;25.08;37.87;93498.06;2069983;69;20811;-74
2022/07/17 08:38:48;;;;;;;5.00;4.47;;;;;;;24.80;35.36;93494.59;2069702;69;20179;-75
2022/07/17 08:41:21;;;;;;;5.80;4.75;;;;;;;24.93;36.12;93490.56;2069805;69;20192;-73
2022/07/17 08:43:48;;;;;;;5.93;4.45;;;;;;;25.64;37.69;93499.06;2070828;69;20159;-71
2022/07/17 08:46:16;;;;;;;82.97;68.05;;;;;;;25.94;37.63;93498.88;2066922;69;20543;-70
2022/07/17 08:48:45;;;;;;;5.55;4.53;;;;;;;25.87;36.46;93495.16;2070032;69;20195;-70
2022/07/17 08:51:11;;;;;;;7.68;4.30;;;;;;;26.12;36.51;93490.50;2070145;69;20226;-70
2022/07/17 08:53:38;;;;;;;9.35;4.53;;;;;;;26.54;35.56;93498.34;2069758;69;20176;-70
2022/07/17 08:56:04;;;;;;;5.05;3.97;;;;;;;26.64;34.70;93491.97;2070432;69;20602;-70
2022/07/17 08:58:30;;;;;;;5.05;4.07;;;;;;;26.77;34.45;93491.41;2069855;69;20169;-69
2022/07/17 09:00:57;;;;;;;7.53;4.40;;;;;;;27.56;33.78;93480.03;2070486;69;20241;-69
2022/07/17 09:03:23;;;;;;;6.53;4.50;;;;;;;27.34;32.89;93482.69;2070037;69;20184;-70
2022/07/17 09:05:49;;;;;;;6.85;4.05;;;;;;;27.81;33.92;93478.13;2070721;69;20184;-71
2022/07/17 09:08:21;;;;;;;5.47;4.18;;;;;;;27.67;32.57;93477.22;2069551;69;20144;-69
2022/07/17 09:10:49;;;;;;;5.32;4.32;;;;;;;27.03;32.94;93476.56;2070165;69;20188;-70
2022/07/17 09:13:26;;;;;;;7.45;4.20;;;;;;;27.34;33.06;93471.84;2067220;69;20141;-71
2022/07/17 09:15:58;;;;;;;6.70;4.88;;;;;;;28.08;34.33;93464.56;2066869;69;20160;-76
2022/07/17 09:18:26;;;;;;;9.05;7.40;;;;;;;28.57;32.59;93470.69;2067214;69;20159;-69
2022/07/17 09:20:57;;;;;;;12.27;9.75;;;;;;;29.09;33.42;93466.59;2066609;69;20152;-70
2022/07/17 09:23:26;;;;;;;7.93;3.88;;;;;;;29.41;33.25;93471.00;2067176;69;20153;-70
2022/07/17 09:25:54;;;;;;;8.55;4.20;;;;;;;28.62;31.08;93456.94;2066820;69;20517;-74
2022/07/17 09:28:21;;;;;;;6.72;4.30;;;;;;;28.75;30.58;93452.66;2066686;69;20152;-70
2022/07/17 09:30:52;;;;;;;6.60;4.10;;;;;;;29.60;30.50;93463.13;2067529;69;20145;-70
2022/07/17 09:33:21;;;;;;;6.75;3.63;;;;;;;30.11;30.85;93460.94;2067703;69;20183;-69
2022/07/17 09:35:52;;;;;;;6.70;3.90;;;;;;;29.60;31.92;93460.22;2067095;69;20133;-72
2022/07/17 09:38:38;;;;;;;6.43;4.10;;;;;;;30.31;31.19;93463.13;2066649;69;20175;-72
2022/07/17 09:41:12;;;;;;;5.90;3.85;;;;;;;30.24;31.16;93450.06;2066318;69;20562;-79
2022/07/17 09:43:39;;;;;;;4.80;3.78;;;;;;;30.40;31.20;93452.22;2066693;69;20172;-77
2022/07/17 09:46:08;;;;;;;4.93;3.70;;;;;;;30.95;30.23;93451.34;2066755;69;20241;-74
2022/07/17 09:48:35;;;;;;;4.32;3.92;;;;;;;29.94;29.08;93447.16;2066800;69;20187;-69
2022/07/17 09:51:02;;;;;;;7.47;3.70;;;;;;;30.41;29.17;93455.84;2066831;69;20136;-74
2022/07/17 09:53:30;;;;;;;17.65;13.48;;;;;;;30.62;30.24;93448.53;2066391;69;20630;-74
2022/07/17 09:55:58;;;;;;;6.03;3.95;;;;;;;30.90;30.25;93449.91;2067285;69;20517;-73
2022/07/17 09:58:25;;;;;;;6.90;3.80;;;;;;;31.44;30.24;93443.13;2067652;69;20232;-73
2022/07/17 10:00:50;;;;;;;7.10;4.97;;;;;;;31.69;28.99;93440.75;2069137;69;20151;-71
2022/07/17 10:03:20;;;;;;;3.97;3.67;;;;;;;31.95;27.96;93436.25;2064832;69;20156;-68
2022/07/17 10:05:46;;;;;;;7.20;3.50;;;;;;;31.04;28.84;93435.31;2066450;69;20160;-69
2022/07/17 10:08:13;;;;;;;5.10;3.08;;;;;;;31.16;29.22;93431.59;2067868;69;20155;-76
2022/07/17 10:10:39;;;;;;;5.50;3.47;;;;;;;31.56;28.05;93427.75;2068181;69;20148;-79
2022/07/17 10:13:05;;;;;;;4.55;3.60;;;;;;;31.02;27.78;93433.16;2068054;69;20206;-77
2022/07/17 10:15:31;;;;;;;5.68;3.60;;;;;;;31.28;28.51;93420.66;2070059;69;20160;-75
2022/07/17 10:18:07;;;;;;;6.63;3.30;;;;;;;32.51;27.41;93417.50;2070135;69;20187;-77
2022/07/17 10:20:32;;;;;;;4.18;3.22;;;;;;;32.55;28.92;93414.56;2074089;69;20201;-78
2022/07/17 10:22:58;;;;;;;5.35;3.38;;;;;;;31.96;26.64;93411.47;2074807;69;20176;-74
2022/07/17 10:25:24;;;;;;;5.72;3.42;;;;;;;31.95;27.61;93410.75;2075293;69;20581;-72
2022/07/17 10:27:53;;;;;;;5.13;3.30;;;;;;;31.55;28.04;93412.50;2075362;69;20213;-70
2022/07/17 10:30:28;;;;;;;5.15;3.60;;;;;;;32.45;27.15;93408.13;2075380;69;20155;-70
2022/07/17 10:32:58;;;;;;;5.07;3.30;;;;;;;32.45;25.94;93402.31;2076140;69;20140;-73
2022/07/17 10:35:26;;;;;;;6.32;3.30;;;;;;;32.78;26.20;93399.72;2076696;69;20235;-72
2022/07/17 10:37:53;;;;;;;4.75;2.90;;;;;;;33.13;26.43;93403.69;2075295;69;20140;-71
2022/07/17 10:40:29;;;;;;;4.72;3.00;;;;;;;32.93;26.26;93398.09;2075489;69;20144;-73
2022/07/17 10:43:02;;;;;;;3.38;3.00;;;;;;;34.38;25.03;93398.84;2075452;69;20144;-71
2022/07/17 10:45:35;;;;;;;3.13;2.83;;;;;;;34.86;24.22;93397.19;2072015;69;20634;-72
2022/07/17 10:48:02;;;;;;;6.03;3.00;;;;;;;34.51;23.35;93393.53;2075270;69;20591;-74
2022/07/17 10:50:35;;;;;;;4.55;2.75;;;;;;;35.01;23.21;93391.81;2075293;69;20170;-71
2022/07/17 10:53:11;;;;;;;2.95;2.50;;;;;;;36.30;22.34;93395.44;2075179;69;20147;-71
2022/07/17 10:55:41;;;;;;;4.28;2.60;;;;;;;37.29;21.21;93393.47;2075445;69;20595;-71
2022/07/17 10:58:15;;;;;;;3.35;2.47;;;;;;;35.96;20.70;93388.22;2075315;69;20175;-72
2022/07/17 11:00:41;;;;;;;2.53;2.25;;;;;;;37.07;20.32;93375.03;2075302;69;20136;-68
2022/07/17 11:03:13;;;;;;;3.72;2.40;;;;;;;38.61;19.36;93382.66;2075382;69;20147;-72
2022/07/17 11:05:39;;;;;;;2.53;2.10;;;;;;;39.09;18.70;93371.38;2075288;69;20616;-72
2022/07/17 11:08:09;;;;;;;3.78;2.35;;;;;;;39.43;18.14;93373.81;2075112;69;20167;-74
2022/07/17 11:10:37;;;;;;;5.90;2.20;;;;;;;39.62;17.93;93377.47;2075290;69;20151;-74
2022/07/17 11:13:11;;;;;;;3.22;2.22;;;;;;;42.96;15.34;93366.78;2075304;69;20148;-73
2022/07/17 11:15:47;;;;;;;2.92;2.10;;;;;;;43.82;14.91;93380.66;2075287;69;20167;-74
2022/07/17 11:18:19;;;;;;;4.38;2.10;;;;;;;41.39;16.03;93366.34;2075443;69;20139;-76
2022/07/17 11:20:55;;;;;;;3.67;2.08;;;;;;;44.56;14.08;93363.06;2075335;69;20221;-73
2022/07/17 11:23:23;;;;;;;6.32;2.30;;;;;;;46.15;13.23;93373.34;2075121;69;20585;-76
2022/07/17 11:26:04;;;;;;;3.70;1.95;;;;;;;44.94;13.87;93370.50;2075303;69;20163;-74
2022/07/17 11:28:50;;;;;;;3.95;2.38;;;;;;;46.61;13.90;93360.63;2075218;69;20167;-77
2022/07/17 11:31:22;;;;;;;6.80;2.20;;;;;;;46.80;13.71;93365.34;2075063;69;20534;-73